Time;durP1;ratioP1;P1;durP2;ratioP2;P2;SDS_P1;SDS_P2;PMS_P1;PMS_P2;Temp;Humidity;BMP_temperature;BMP_pressure;BME280_temperature;BME280_humidity;BME280_pressure;Samples;Min_cycle;Max_cycle;Signal;HPM_P1;HPM_P2
2022/05/26 00:00:16;;;;;;;6.54;2.87;;;;;;;;;;349658;151;857476;-71
2022/05/26 00:01:17;;;;;;;10.69;2.41;;;;;;;;;;349118;151;857168;-70
2022/05/26 00:02:19;;;;;;;9.87;2.39;;;;;;;;;;349106;151;857219;-73
2022/05/26 00:03:21;;;;;;;3.92;2.05;;;;;;;;;;349296;151;864702;-70
2022/05/26 00:04:22;;;;;;;4.19;2.29;;;;;;;;;;350183;151;858913;-71
2022/05/26 00:05:24;;;;;;;6.55;2.31;;;;;;;;;;354315;151;857891;-72
2022/05/26 00:06:26;;;;;;;4.57;2.06;;;;;;;;;;348841;151;857303;-71
2022/05/26 00:07:27;;;;;;;3.62;2.38;;;;;;;;;;354340;151;857293;-73
2022/05/26 00:08:29;;;;;;;3.19;2.10;;;;;;;;;;352819;151;857335;-73
2022/05/26 00:09:31;;;;;;;5.90;2.29;;;;;;;;;;348808;151;859488;-71
2022/05/26 00:10:34;;;;;;;4.86;2.67;;;;;;;;;;344696;151;864797;-71
2022/05/26 00:11:36;;;;;;;5.67;2.19;;;;;;;;;;348152;154;864715;-70
2022/05/26 00:12:38;;;;;;;4.43;1.96;;;;;;;;;;347428;151;860115;-70
2022/05/26 00:13:39;;;;;;;3.89;1.96;;;;;;;;;;349141;151;857271;-71
2022/05/26 00:14:42;;;;;;;7.95;2.10;;;;;;;;;;341202;154;864874;-69
2022/05/26 00:15:45;;;;;;;6.22;2.33;;;;;;;;;;343025;154;858925;-70
2022/05/26 00:16:47;;;;;;;3.65;1.97;;;;;;;;;;341505;154;857210;-72
2022/05/26 00:17:49;;;;;;;2.56;1.72;;;;;;;;;;342055;154;864697;-71
2022/05/26 00:18:50;;;;;;;4.20;2.08;;;;;;;;;;342088;154;857316;-72
2022/05/26 00:19:52;;;;;;;5.16;1.93;;;;;;;;;;340254;154;866519;-71
2022/05/26 00:20:53;;;;;;;3.15;2.03;;;;;;;;;;341723;153;859008;-71
2022/05/26 00:21:55;;;;;;;4.36;2.32;;;;;;;;;;339767;154;858963;-71
2022/05/26 00:22:57;;;;;;;3.71;2.32;;;;;;;;;;339299;156;858786;-71
2022/05/26 00:23:58;;;;;;;5.03;2.06;;;;;;;;;;339103;158;857417;-72
2022/05/26 00:25:00;;;;;;;4.74;2.04;;;;;;;;;;339209;156;859011;-71
2022/05/26 00:26:01;;;;;;;6.44;2.14;;;;;;;;;;340030;154;859473;-71
2022/05/26 00:27:03;;;;;;;3.99;2.09;;;;;;;;;;339391;158;865184;-71
2022/05/26 00:28:05;;;;;;;3.81;1.96;;;;;;;;;;339531;156;857351;-69
2022/05/26 00:29:07;;;;;;;4.77;1.99;;;;;;;;;;339700;154;860086;-71
2022/05/26 00:30:10;;;;;;;6.56;2.05;;;;;;;;;;343001;153;866659;-71
2022/05/26 00:31:12;;;;;;;7.15;2.26;;;;;;;;;;347081;153;857468;-71
2022/05/26 00:32:14;;;;;;;7.23;2.31;;;;;;;;;;344685;153;856512;-72
2022/05/26 00:33:16;;;;;;;2.91;1.81;;;;;;;;;;336262;156;858312;-71
2022/05/26 00:34:18;;;;;;;3.94;2.42;;;;;;;;;;339127;156;858528;-70
2022/05/26 00:35:19;;;;;;;3.81;1.88;;;;;;;;;;346126;153;859873;-70
2022/05/26 00:36:37;;;;;;;4.75;2.39;;;;;;;;;;342243;153;857239;-73
2022/05/26 00:37:25;;;;;;;5.08;2.32;;;;;;;;;;341910;153;859029;-72
2022/05/26 00:38:26;;;;;;;3.14;1.91;;;;;;;;;;345769;153;857175;-72
2022/05/26 00:39:28;;;;;;;6.00;2.47;;;;;;;;;;343726;153;859597;-73
2022/05/26 00:40:30;;;;;;;5.06;2.24;;;;;;;;;;346671;153;857322;-72
2022/05/26 00:41:32;;;;;;;6.59;2.12;;;;;;;;;;346581;153;858716;-72
2022/05/26 00:42:33;;;;;;;5.81;2.16;;;;;;;;;;346464;153;858813;-72
2022/05/26 00:43:35;;;;;;;6.57;1.96;;;;;;;;;;343754;153;858107;-72
2022/05/26 00:44:38;;;;;;;5.16;1.77;;;;;;;;;;347045;153;857155;-71
2022/05/26 00:45:53;;;;;;;7.46;2.21;;;;;;;;;;341576;153;857333;-71
2022/05/26 00:47:15;;;;;;;5.21;2.12;;;;;;;;;;345226;153;857465;-72
2022/05/26 00:48:17;;;;;;;4.05;1.93;;;;;;;;;;342754;153;859329;-71
2022/05/26 00:49:27;;;;;;;5.59;2.01;;;;;;;;;;346102;154;858061;-72
2022/05/26 00:50:29;;;;;;;6.79;2.51;;;;;;;;;;344226;153;857175;-73
2022/05/26 00:51:32;;;;;;;4.52;1.79;;;;;;;;;;340083;154;857283;-71
2022/05/26 00:52:39;;;;;;;5.81;1.65;;;;;;;;;;343267;154;857395;-72
2022/05/26 00:53:42;;;;;;;3.87;1.87;;;;;;;;;;343525;153;860247;-71
2022/05/26 00:54:44;;;;;;;4.26;1.90;;;;;;;;;;343915;153;859002;-73
2022/05/26 00:55:48;;;;;;;4.96;2.22;;;;;;;;;;343718;153;857735;-73
2022/05/26 00:56:51;;;;;;;4.83;2.00;;;;;;;;;;345139;153;865681;-73
2022/05/26 00:58:00;;;;;;;4.08;1.66;;;;;;;;;;345731;153;857322;-70
2022/05/26 00:59:03;;;;;;;4.99;2.00;;;;;;;;;;345476;153;858314;-73
2022/05/26 01:00:12;;;;;;;8.21;1.89;;;;;;;;;;342422;153;859954;-73
2022/05/26 01:01:15;;;;;;;4.79;1.72;;;;;;;;;;342728;154;858045;-72
2022/05/26 01:02:17;;;;;;;5.27;1.93;;;;;;;;;;342588;153;859135;-71
2022/05/26 01:03:20;;;;;;;6.33;1.85;;;;;;;;;;344837;153;858316;-71
2022/05/26 01:04:22;;;;;;;5.97;1.58;;;;;;;;;;344927;153;858438;-71
2022/05/26 01:05:25;;;;;;;5.44;1.95;;;;;;;;;;343291;153;856276;-71
2022/05/26 01:06:31;;;;;;;3.51;1.66;;;;;;;;;;344722;153;864851;-72
2022/05/26 01:07:34;;;;;;;6.11;1.98;;;;;;;;;;343858;153;865227;-71
2022/05/26 01:08:44;;;;;;;13.71;2.59;;;;;;;;;;339106;156;858217;-71
2022/05/26 01:09:45;;;;;;;6.17;1.77;;;;;;;;;;336729;154;865727;-71
2022/05/26 01:10:47;;;;;;;3.62;1.79;;;;;;;;;;344157;153;857238;-71
2022/05/26 01:11:49;;;;;;;4.91;1.94;;;;;;;;;;342689;153;857443;-70
2022/05/26 01:12:51;;;;;;;5.88;1.81;;;;;;;;;;341377;153;858677;-72
2022/05/26 01:13:54;;;;;;;4.78;1.98;;;;;;;;;;342140;153;859414;-71
2022/05/26 01:14:57;;;;;;;7.28;1.78;;;;;;;;;;350253;151;857332;-72
2022/05/26 01:16:01;;;;;;;7.67;1.89;;;;;;;;;;354217;151;857313;-71
2022/05/26 01:17:13;;;;;;;3.51;1.62;;;;;;;;;;350601;151;858936;-71
2022/05/26 01:18:17;;;;;;;3.97;1.82;;;;;;;;;;350162;151;859909;-71
2022/05/26 01:19:20;;;;;;;5.59;1.91;;;;;;;;;;349683;151;857356;-72
2022/05/26 01:20:24;;;;;;;4.37;1.41;;;;;;;;;;345736;151;857211;-72
2022/05/26 01:21:28;;;;;;;4.34;2.07;;;;;;;;;;348959;151;858900;-71
2022/05/26 01:22:48;;;;;;;4.27;1.59;;;;;;;;;;351928;151;864750;-71
2022/05/26 01:23:50;;;;;;;;;;;;;;;;;;352072;151;864177;-71
2022/05/26 01:25:10;;;;;;;3.96;1.78;;;;;;;;;;349026;151;857363;-72
2022/05/26 01:26:17;;;;;;;4.17;1.41;;;;;;;;;;346518;153;857519;-70
2022/05/26 01:27:20;;;;;;;7.48;1.92;;;;;;;;;;342593;153;858044;-72
2022/05/26 01:28:42;;;;;;;7.47;1.59;;;;;;;;;;352846;151;857251;-72
2022/05/26 01:29:55;;;;;;;6.22;1.63;;;;;;;;;;346901;151;857406;-72
2022/05/26 01:31:14;;;;;;;3.37;1.57;;;;;;;;;;349098;151;860260;-72
2022/05/26 01:32:26;;;;;;;6.61;1.69;;;;;;;;;;348852;151;856895;-71
2022/05/26 01:33:30;;;;;;;5.71;1.76;;;;;;;;;;351850;150;860387;-70
2022/05/26 01:34:33;;;;;;;4.38;1.39;;;;;;;;;;351308;151;858968;-72
2022/05/26 01:35:43;;;;;;;6.22;1.39;;;;;;;;;;349027;151;865097;-71
2022/05/26 01:37:03;;;;;;;6.29;1.57;;;;;;;;;;348740;151;859452;-71
2022/05/26 01:38:05;;;;;;;;;;;;;;;;;;350464;151;856651;-71
2022/05/26 01:39:11;;;;;;;2.33;1.26;;;;;;;;;;350632;151;857674;-71
2022/05/26 01:40:21;;;;;;;9.16;1.33;;;;;;;;;;344609;153;858045;-71
2022/05/26 01:41:24;;;;;;;4.14;1.49;;;;;;;;;;346773;151;858458;-71
2022/05/26 01:42:28;;;;;;;4.52;1.36;;;;;;;;;;349203;151;859388;-69
2022/05/26 01:43:35;;;;;;;6.97;1.66;;;;;;;;;;349677;151;857396;-72
2022/05/26 01:44:48;;;;;;;3.63;1.67;;;;;;;;;;348799;151;864746;-72
2022/05/26 01:45:51;;;;;;;5.35;1.63;;;;;;;;;;348697;151;857277;-71
2022/05/26 01:46:53;;;;;;;3.44;1.28;;;;;;;;;;349397;151;857348;-71
2022/05/26 01:48:00;;;;;;;6.22;1.97;;;;;;;;;;345656;151;858827;-72
2022/05/26 01:49:09;;;;;;;6.38;1.69;;;;;;;;;;349077;151;859738;-71
2022/05/26 01:50:17;;;;;;;4.84;1.34;;;;;;;;;;348799;151;857302;-70
2022/05/26 01:51:35;;;;;;;7.68;1.36;;;;;;;;;;349222;151;857542;-72
2022/05/26 01:52:41;;;;;;;2.91;1.54;;;;;;;;;;350570;151;856847;-71
2022/05/26 01:53:45;;;;;;;5.16;1.46;;;;;;;;;;345816;151;856639;-70
2022/05/26 01:54:52;;;;;;;2.98;1.56;;;;;;;;;;347425;151;858916;-71
2022/05/26 01:55:56;;;;;;;9.69;1.53;;;;;;;;;;347757;151;856344;-71
2022/05/26 01:57:06;;;;;;;5.17;1.45;;;;;;;;;;349863;151;859204;-72
2022/05/26 01:58:12;;;;;;;6.13;1.54;;;;;;;;;;352543;151;857729;-73
2022/05/26 01:59:18;;;;;;;8.55;1.46;;;;;;;;;;347562;151;857166;-73
2022/05/26 02:00:20;;;;;;;7.36;1.78;;;;;;;;;;354250;151;857379;-71
2022/05/26 02:01:23;;;;;;;5.61;1.58;;;;;;;;;;349644;151;858212;-70
2022/05/26 02:02:27;;;;;;;5.69;1.79;;;;;;;;;;349845;150;857301;-71
2022/05/26 02:03:30;;;;;;;2.96;1.31;;;;;;;;;;347929;151;864833;-70
2022/05/26 02:04:38;;;;;;;5.43;1.33;;;;;;;;;;348688;151;857286;-74
2022/05/26 02:05:41;;;;;;;5.91;1.33;;;;;;;;;;349095;151;864630;-71
2022/05/26 02:06:47;;;;;;;5.74;1.69;;;;;;;;;;348939;151;859766;-72
2022/05/26 02:07:57;;;;;;;3.52;1.41;;;;;;;;;;347335;151;857729;-72
2022/05/26 02:09:03;;;;;;;8.53;1.81;;;;;;;;;;351109;151;858466;-73
2022/05/26 02:10:07;;;;;;;6.80;1.14;;;;;;;;;;348663;151;857819;-71
2022/05/26 02:11:11;;;;;;;3.78;1.77;;;;;;;;;;342586;154;859964;-71
2022/05/26 02:12:14;;;;;;;7.56;1.33;;;;;;;;;;347155;151;864889;-71
2022/05/26 02:13:20;;;;;;;3.42;1.05;;;;;;;;;;349605;151;864793;-70
2022/05/26 02:14:25;;;;;;;6.27;1.98;;;;;;;;;;345866;154;857607;-70
2022/05/26 02:15:28;;;;;;;3.76;1.35;;;;;;;;;;346901;154;859166;-71
2022/05/26 02:16:35;;;;;;;4.11;1.57;;;;;;;;;;348440;151;866921;-71
2022/05/26 02:17:39;;;;;;;6.35;1.41;;;;;;;;;;352249;151;857129;-73
2022/05/26 02:18:45;;;;;;;5.93;2.41;;;;;;;;;;348736;151;859106;-72
2022/05/26 02:19:50;;;;;;;5.28;1.61;;;;;;;;;;343854;153;857226;-72
2022/05/26 02:20:54;;;;;;;6.53;1.53;;;;;;;;;;343986;151;860643;-71
2022/05/26 02:22:04;;;;;;;9.47;1.59;;;;;;;;;;349940;151;857340;-70
2022/05/26 02:23:13;;;;;;;4.31;1.46;;;;;;;;;;349692;151;857276;-71
2022/05/26 02:24:21;;;;;;;3.54;1.43;;;;;;;;;;350561;151;859232;-71
2022/05/26 02:25:23;;;;;;;5.37;1.59;;;;;;;;;;351679;151;858050;-72
2022/05/26 02:26:25;;;;;;;5.67;1.65;;;;;;;;;;348084;151;857652;-71
2022/05/26 02:27:26;;;;;;;4.14;1.63;;;;;;;;;;339668;156;858996;-72
2022/05/26 02:28:28;;;;;;;5.22;1.56;;;;;;;;;;337819;156;857481;-71
2022/05/26 02:30:49;;;;;;;4.39;1.54;;;;;;;;;;348700;151;857304;-71
2022/05/26 02:31:51;;;;;;;4.00;1.75;;;;;;;;;;349627;151;864895;-70
2022/05/26 02:32:53;;;;;;;5.60;1.40;;;;;;;;;;351761;151;865721;-71
2022/05/26 02:33:56;;;;;;;4.03;1.53;;;;;;;;;;350517;151;859154;-71
2022/05/26 02:34:58;;;;;;;4.78;1.59;;;;;;;;;;349286;151;857274;-70
2022/05/26 02:36:00;;;;;;;8.99;1.77;;;;;;;;;;347859;151;856794;-70
2022/05/26 02:37:01;;;;;;;2.28;1.34;;;;;;;;;;349468;151;856241;-71
2022/05/26 02:38:04;;;;;;;5.81;1.61;;;;;;;;;;348971;151;863659;-70
2022/05/26 02:39:07;;;;;;;6.87;1.41;;;;;;;;;;348967;151;863792;-71
2022/05/26 02:40:09;;;;;;;11.48;1.50;;;;;;;;;;349082;151;856381;-72
2022/05/26 02:41:11;;;;;;;12.04;1.78;;;;;;;;;;347490;151;856990;-70
2022/05/26 02:42:12;;;;;;;3.39;1.45;;;;;;;;;;349288;151;857206;-71
2022/05/26 02:43:18;;;;;;;4.14;1.68;;;;;;;;;;348889;151;856512;-72
2022/05/26 02:44:20;;;;;;;7.88;1.58;;;;;;;;;;349478;151;856506;-71
2022/05/26 02:45:27;;;;;;;3.32;1.36;;;;;;;;;;349227;154;856385;-70
2022/05/26 02:46:49;;;;;;;7.19;1.72;;;;;;;;;;349471;151;863500;-70
2022/05/26 02:47:56;;;;;;;7.49;1.66;;;;;;;;;;349022;151;856311;-70
2022/05/26 02:49:02;;;;;;;6.03;1.68;;;;;;;;;;351410;151;856324;-71
2022/05/26 02:50:12;;;;;;;6.09;1.87;;;;;;;;;;349018;151;856223;-71
2022/05/26 02:51:16;;;;;;;3.66;1.58;;;;;;;;;;349707;151;857079;-73
2022/05/26 02:54:35;;;;;;;8.61;2.03;;;;;;;17.59;50.08;99222.95;369466;142;883088;-61
2022/05/26 02:55:59;;;;;;;2.13;1.42;;;;;;;17.49;50.11;99221.71;362205;147;858664;-61
2022/05/26 02:57:21;;;;;;;5.16;1.91;;;;;;;17.40;50.76;99224.77;362114;147;856429;-60
2022/05/26 02:58:33;;;;;;;5.77;1.87;;;;;;;17.36;51.11;99221.44;363871;147;856196;-62
2022/05/26 02:59:50;;;;;;;4.27;1.68;;;;;;;17.31;51.08;99213.83;360785;147;856406;-62
2022/05/26 03:01:12;;;;;;;8.31;1.69;;;;;;;17.32;51.90;99218.13;362295;147;856993;-64
2022/05/26 03:02:27;;;;;;;5.49;2.18;;;;;;;17.22;51.73;99212.48;362464;147;856496;-63
2022/05/26 03:03:44;;;;;;;5.52;1.44;;;;;;;17.21;52.04;99215.19;361805;147;856180;-63
2022/05/26 03:04:48;;;;;;;4.47;1.86;;;;;;;17.19;51.84;99214.41;364213;147;856243;-64
2022/05/26 03:05:59;;;;;;;4.16;1.62;;;;;;;17.08;51.98;99200.06;362057;147;856766;-62
2022/05/26 03:07:03;;;;;;;2.67;1.61;;;;;;;17.10;52.23;99215.67;363048;147;856229;-62
2022/05/26 03:08:06;;;;;;;10.82;2.05;;;;;;;17.05;52.96;99207.20;362575;147;856191;-62
2022/05/26 03:09:08;;;;;;;2.20;1.54;;;;;;;17.04;52.94;99216.83;362441;147;863886;-62
2022/05/26 03:10:10;;;;;;;1.53;1.31;;;;;;;17.04;53.62;99208.98;363272;147;856687;-61
2022/05/26 03:11:15;;;;;;;7.63;1.93;;;;;;;17.00;53.92;99207.42;364845;147;856471;-63
2022/05/26 03:12:29;;;;;;;5.46;1.65;;;;;;;16.90;55.34;99221.78;353696;150;856516;-63
2022/05/26 03:13:30;;;;;;;4.11;1.77;;;;;;;16.81;55.72;99217.84;355056;147;856294;-62
2022/05/26 03:14:32;;;;;;;7.61;1.43;;;;;;;16.76;55.82;99210.19;362615;146;856192;-61
2022/05/26 03:15:34;;;;;;;7.89;1.74;;;;;;;16.70;57.16;99214.86;363519;147;863756;-62
2022/05/26 03:16:36;;;;;;;3.58;1.91;;;;;;;16.58;57.81;99208.41;364327;147;856124;-60
2022/05/26 03:17:38;;;;;;;4.42;1.81;;;;;;;16.53;57.59;99208.63;361110;147;856156;-62
2022/05/26 03:18:40;;;;;;;5.72;1.74;;;;;;;16.50;57.92;99208.77;361909;147;863796;-63
2022/05/26 03:19:42;;;;;;;4.15;1.61;;;;;;;16.47;58.22;99206.29;364367;147;856848;-63
2022/05/26 03:20:43;;;;;;;6.41;1.94;;;;;;;16.45;58.85;99208.95;362879;147;856773;-62
2022/05/26 03:21:45;;;;;;;5.58;1.96;;;;;;;;;;360875;147;863842;-63
2022/05/26 03:22:47;;;;;;;3.81;1.66;;;;;;;;;;362728;147;866429;-61
2022/05/26 03:23:48;;;;;;;3.94;1.95;;;;;;;;;;360671;147;865079;-61
2022/05/26 03:24:51;;;;;;;5.44;1.79;;;;;;;;;;361805;147;857926;-60
2022/05/26 03:25:56;;;;;;;4.15;1.84;;;;;;;;;;362501;147;858334;-61
2022/05/26 03:26:57;;;;;;;4.05;1.97;;;;;;;;;;362294;147;856418;-61
2022/05/26 03:27:59;;;;;;;5.01;2.24;;;;;;;;;;363511;147;864091;-62
2022/05/26 03:29:00;;;;;;;5.46;2.07;;;;;;;;;;363943;147;857289;-58
2022/05/26 03:30:03;;;;;;;4.38;2.11;;;;;;;;;;363539;147;859028;-63
2022/05/26 03:31:05;;;;;;;4.45;2.09;;;;;;;;;;363702;147;866307;-58
2022/05/26 03:32:07;;;;;;;7.13;2.25;;;;;;;;;;362017;147;857242;-60
2022/05/26 03:33:09;;;;;;;6.25;2.08;;;;;;;;;;363530;147;857869;-59
2022/05/26 03:40:46;;;;;;;4.17;1.94;;;;;;;;;;356473;147;859186;-59
2022/05/26 03:41:48;;;;;;;3.45;2.12;;;;;;;;;;359542;147;865403;-63
2022/05/26 03:42:50;;;;;;;3.69;2.16;;;;;;;;;;362048;147;858196;-62
2022/05/26 03:43:53;;;;;;;5.69;2.72;;;;;;;;;;362568;147;864907;-61
2022/05/26 03:44:56;;;;;;;5.65;2.36;;;;;;;;;;360950;147;864778;-62
2022/05/26 03:45:59;;;;;;;5.92;2.58;;;;;;;;;;360990;147;858859;-60
2022/05/26 03:47:00;;;;;;;6.73;2.33;;;;;;;;;;363706;147;857814;-62
2022/05/26 03:48:02;;;;;;;6.46;2.41;;;;;;;;;;364086;147;857887;-61
2022/05/26 03:49:04;;;;;;;4.60;2.27;;;;;;;;;;364381;147;857691;-61
2022/05/26 03:50:07;;;;;;;7.39;2.74;;;;;;;;;;359914;147;860269;-61
2022/05/26 03:51:09;;;;;;;6.93;2.12;;;;;;;;;;362297;147;865776;-64
2022/05/26 03:52:10;;;;;;;8.12;2.49;;;;;;;;;;364330;147;861140;-64
2022/05/26 03:53:12;;;;;;;4.50;2.01;;;;;;;;;;364455;147;866130;-62
2022/05/26 03:54:14;;;;;;;4.94;2.66;;;;;;;;;;359559;147;859128;-60
2022/05/26 03:55:15;;;;;;;7.42;2.21;;;;;;;;;;357751;150;858113;-60
2022/05/26 03:56:17;;;;;;;5.07;2.42;;;;;;;;;;356565;149;859066;-62
2022/05/26 03:57:23;;;;;;;9.15;2.81;;;;;;;;;;355838;150;865468;-62
2022/05/26 03:58:25;;;;;;;6.57;2.85;;;;;;;;;;348009;153;857582;-61
2022/05/26 03:59:26;;;;;;;5.66;2.18;;;;;;;;;;349555;152;858666;-61
2022/05/26 04:00:28;;;;;;;5.18;3.03;;;;;;;;;;350440;153;857350;-60
2022/05/26 04:01:29;;;;;;;3.49;2.19;;;;;;;;;;341967;155;859298;-59
2022/05/26 04:02:32;;;;;;;4.29;2.20;;;;;;;;;;348234;152;860086;-60
2022/05/26 04:03:34;;;;;;;4.65;2.25;;;;;;;;;;343826;153;857479;-61
2022/05/26 04:04:35;;;;;;;6.01;2.31;;;;;;;;;;349385;150;857843;-60
2022/05/26 04:05:37;;;;;;;5.56;2.13;;;;;;;;;;356460;150;858618;-60
2022/05/26 04:06:38;;;;;;;5.50;2.29;;;;;;;;;;354984;149;857674;-60
2022/05/26 04:07:40;;;;;;;5.60;2.35;;;;;;;;;;355738;149;857200;-61
2022/05/26 04:08:41;;;;;;;7.51;2.09;;;;;;;;;;357010;149;857323;-62
2022/05/26 04:09:43;;;;;;;6.21;2.20;;;;;;;;;;357099;149;857161;-61
2022/05/26 04:10:44;;;;;;;6.96;2.81;;;;;;;;;;354670;149;857289;-60
2022/05/26 04:11:46;;;;;;;5.00;2.37;;;;;;;;;;356740;150;866414;-60
2022/05/26 04:12:47;;;;;;;4.72;1.95;;;;;;;;;;356944;150;859008;-60
2022/05/26 04:13:51;;;;;;;6.83;2.55;;;;;;;;;;357860;149;858371;-61
2022/05/26 04:14:53;;;;;;;4.58;2.03;;;;;;;;;;358000;149;865204;-62
2022/05/26 04:15:54;;;;;;;6.01;2.76;;;;;;;;;;356422;149;857326;-62
2022/05/26 04:16:57;;;;;;;8.14;2.93;;;;;;;;;;357226;150;858815;-60
2022/05/26 04:17:58;;;;;;;7.21;2.51;;;;;;;;;;356292;150;865525;-61
2022/05/26 04:19:00;;;;;;;4.96;2.62;;;;;;;;;;356278;149;857234;-61
2022/05/26 04:20:02;;;;;;;7.53;2.71;;;;;;;;;;356546;149;865320;-63
2022/05/26 04:21:06;;;;;;;7.26;2.54;;;;;;;;;;355667;150;857736;-64
2022/05/26 04:22:18;;;;;;;3.51;1.46;;;;;;;;;;355764;149;866526;-60
2022/05/26 04:23:20;;;;;;;7.67;2.40;;;;;;;;;;356105;149;857438;-61
2022/05/26 04:24:22;;;;;;;7.17;2.61;;;;;;;;;;355783;150;857755;-61
2022/05/26 04:25:25;;;;;;;5.37;2.48;;;;;;;;;;356582;149;857720;-63
2022/05/26 04:26:27;;;;;;;5.93;2.41;;;;;;;;;;355416;149;857245;-61
2022/05/26 04:27:29;;;;;;;4.36;2.51;;;;;;;;;;357259;150;857285;-63
2022/05/26 04:28:30;;;;;;;7.46;2.52;;;;;;;;;;357393;150;856487;-66
2022/05/26 04:29:32;;;;;;;6.26;2.46;;;;;;;;;;354881;150;858969;-63
2022/05/26 04:30:34;;;;;;;4.12;2.17;;;;;;;;;;355258;150;858710;-62
2022/05/26 04:31:35;;;;;;;3.45;2.33;;;;;;;;;;356709;150;866240;-58
2022/05/26 04:32:39;;;;;;;4.45;2.34;;;;;;;;;;357339;148;856360;-60
2022/05/26 04:33:40;;;;;;;7.22;2.53;;;;;;;;;;355115;149;856351;-59
2022/05/26 04:34:45;;;;;;;5.35;2.36;;;;;;;;;;354590;149;856473;-59
2022/05/26 04:35:45;;;;;;;6.22;2.33;;;;;;;;;;354830;150;856403;-61
2022/05/26 04:36:47;;;;;;;5.04;2.25;;;;;;;;;;355157;149;856188;-59
2022/05/26 04:37:48;;;;;;;4.24;2.02;;;;;;;;;;356368;150;863794;-60
2022/05/26 04:38:50;;;;;;;7.38;2.54;;;;;;;;;;357686;149;856873;-61
2022/05/26 04:39:55;;;;;;;4.63;2.45;;;;;;;;;;358641;149;857861;-61
2022/05/26 04:40:57;;;;;;;6.36;2.94;;;;;;;;;;358290;149;856965;-61
2022/05/26 04:41:59;;;;;;;6.06;2.49;;;;;;;;;;357874;150;856415;-64
2022/05/26 04:43:01;;;;;;;4.11;2.32;;;;;;;;;;357182;149;856248;-61
2022/05/26 04:44:02;;;;;;;5.45;3.09;;;;;;;;;;354892;148;856582;-59
2022/05/26 04:45:06;;;;;;;7.45;2.65;;;;;;;;;;356678;149;856093;-58
2022/05/26 04:46:10;;;;;;;3.97;2.78;;;;;;;;;;355100;150;863715;-58
2022/05/26 04:47:11;;;;;;;5.04;2.91;;;;;;;;;;357769;150;856447;-58
2022/05/26 04:48:13;;;;;;;7.48;2.77;;;;;;;;;;356457;149;856416;-58
2022/05/26 04:49:15;;;;;;;3.83;2.40;;;;;;;;;;355881;149;863749;-57
2022/05/26 04:50:18;;;;;;;3.74;2.24;;;;;;;;;;356827;150;857083;-56
2022/05/26 04:51:19;;;;;;;4.54;2.44;;;;;;;;;;356980;149;863587;-56
2022/05/26 05:04:22;;;;;;;7.63;2.71;;;;;;;15.21;71.74;99226.17;376429;141;879547;-56
2022/05/26 05:05:24;;;;;;;8.13;2.34;;;;;;;15.02;72.35;99234.70;365824;144;857953;-55
2022/05/26 05:06:26;;;;;;;2.59;1.93;;;;;;;15.01;72.43;99225.19;368032;144;865819;-56
2022/05/26 05:07:28;;;;;;;5.27;1.93;;;;;;;;;;367666;144;856272;-55
2022/05/26 05:08:29;;;;;;;4.51;1.86;;;;;;;;;;369115;144;859032;-55
2022/05/26 05:09:31;;;;;;;3.91;1.89;;;;;;;;;;369685;144;859496;-55
2022/05/26 05:10:32;;;;;;;4.88;2.28;;;;;;;;;;367523;144;858715;-56
2022/05/26 05:11:34;;;;;;;4.51;2.14;;;;;;;;;;367071;144;858972;-60
2022/05/26 05:12:36;;;;;;;3.76;2.10;;;;;;;;;;365174;144;857265;-56
2022/05/26 05:13:38;;;;;;;7.37;2.81;;;;;;;;;;363475;147;857267;-58
2022/05/26 05:14:41;;;;;;;6.49;2.89;;;;;;;;;;364534;147;858565;-58
2022/05/26 05:15:45;;;;;;;5.21;2.63;;;;;;;;;;362388;147;857644;-59
2022/05/26 05:16:47;;;;;;;5.41;2.67;;;;;;;;;;360277;147;859090;-60
2022/05/26 05:17:48;;;;;;;9.01;2.81;;;;;;;;;;364364;147;857947;-59
2022/05/26 05:18:50;;;;;;;7.29;2.66;;;;;;;;;;362863;147;866035;-61
2022/05/26 05:19:52;;;;;;;7.45;2.76;;;;;;;;;;364053;146;858918;-61
2022/05/26 05:20:54;;;;;;;8.63;2.75;;;;;;;;;;365141;145;857486;-58
2022/05/26 05:21:57;;;;;;;8.08;2.46;;;;;;;;;;364501;145;864790;-58
2022/05/26 05:23:00;;;;;;;5.24;3.04;;;;;;;;;;363075;147;857122;-57
2022/05/26 05:24:04;;;;;;;5.71;2.90;;;;;;;;;;361523;147;858210;-59
2022/05/26 05:25:10;;;;;;;6.23;2.58;;;;;;;;;;364173;145;857650;-58
2022/05/26 05:26:13;;;;;;;4.96;2.64;;;;;;;;;;364517;146;857767;-59
2022/05/26 05:27:16;;;;;;;5.35;2.96;;;;;;;;;;363163;147;857821;-59
2022/05/26 05:28:21;;;;;;;7.42;2.71;;;;;;;;;;363003;147;859545;-59
2022/05/26 05:29:23;;;;;;;9.71;2.96;;;;;;;;;;363138;146;857155;-59
2022/05/26 05:30:42;;;;;;;5.76;2.85;;;;;;;;;;362762;147;866303;-58
2022/05/26 05:31:45;;;;;;;5.35;3.06;;;;;;;;;;362622;147;858815;-59
2022/05/26 05:32:51;;;;;;;5.19;2.98;;;;;;;;;;360205;147;857181;-60
2022/05/26 05:33:54;;;;;;;5.74;3.02;;;;;;;;;;362736;146;857715;-59
2022/05/26 05:34:57;;;;;;;5.09;3.21;;;;;;;;;;362201;145;857352;-63
2022/05/26 05:36:03;;;;;;;6.13;3.19;;;;;;;;;;364972;145;857253;-59
2022/05/26 05:37:05;;;;;;;6.67;3.20;;;;;;;;;;363046;146;864767;-59
2022/05/26 05:38:06;;;;;;;7.54;3.49;;;;;;;;;;363139;147;856506;-59
2022/05/26 05:39:08;;;;;;;7.07;3.01;;;;;;;;;;361752;147;857285;-59
2022/05/26 05:40:11;;;;;;;7.90;3.04;;;;;;;;;;363395;146;857286;-58
2022/05/26 05:41:12;;;;;;;6.06;2.97;;;;;;;;;;365345;147;857435;-58
2022/05/26 05:42:14;;;;;;;5.22;3.24;;;;;;;;;;364956;147;857829;-58
2022/05/26 05:43:15;;;;;;;5.25;2.57;;;;;;;;;;364317;147;857754;-59
2022/05/26 05:44:17;;;;;;;10.86;3.34;;;;;;;;;;364063;146;857246;-59
2022/05/26 05:45:18;;;;;;;6.48;3.25;;;;;;;;;;363878;147;857211;-59
2022/05/26 05:46:20;;;;;;;7.16;3.62;;;;;;;;;;362783;145;864735;-59
2022/05/26 05:47:22;;;;;;;6.49;3.01;;;;;;;;;;362320;147;857348;-59
2022/05/26 05:48:24;;;;;;;5.11;2.73;;;;;;;;;;364159;146;866506;-59
2022/05/26 05:49:26;;;;;;;6.14;3.02;;;;;;;;;;362861;147;858208;-58
2022/05/26 05:50:28;;;;;;;4.73;2.86;;;;;;;;;;363757;147;866556;-59
2022/05/26 05:51:31;;;;;;;7.23;3.46;;;;;;;;;;361425;147;857196;-58
2022/05/26 05:52:33;;;;;;;5.69;2.92;;;;;;;;;;364272;145;856349;-59
2022/05/26 05:53:35;;;;;;;6.11;3.34;;;;;;;;;;364887;147;857221;-59
2022/05/26 05:54:37;;;;;;;7.74;2.51;;;;;;;;;;365044;147;865837;-59
2022/05/26 05:55:38;;;;;;;5.31;2.40;;;;;;;;;;365596;147;858513;-59
2022/05/26 05:56:40;;;;;;;5.97;2.59;;;;;;;;;;365232;147;858016;-60
2022/05/26 05:57:41;;;;;;;3.81;2.07;;;;;;;;;;364382;147;858333;-59
2022/05/26 05:58:43;;;;;;;4.06;1.82;;;;;;;;;;364845;147;857224;-59
2022/05/26 05:59:44;;;;;;;5.34;1.92;;;;;;;;;;362852;147;857319;-60
2022/05/26 06:00:46;;;;;;;2.17;1.78;;;;;;;;;;365364;146;857228;-60
2022/05/26 06:01:48;;;;;;;4.85;1.76;;;;;;;;;;364285;146;864821;-59
2022/05/26 06:02:49;;;;;;;2.83;1.91;;;;;;;;;;364465;147;864949;-59
2022/05/26 06:03:51;;;;;;;2.21;1.63;;;;;;;;;;362862;147;857254;-60
2022/05/26 06:04:53;;;;;;;2.67;1.65;;;;;;;;;;364972;145;857232;-59
2022/05/26 06:05:56;;;;;;;1.58;1.48;;;;;;;;;;362219;147;857246;-59
2022/05/26 06:06:59;;;;;;;2.48;1.14;;;;;;;;;;361691;145;857265;-59
2022/05/26 06:08:01;;;;;;;2.82;1.51;;;;;;;;;;363483;145;859007;-59
2022/05/26 06:09:02;;;;;;;3.32;1.64;;;;;;;;;;364329;147;857438;-59
2022/05/26 06:10:05;;;;;;;2.57;1.49;;;;;;;;;;364242;147;857248;-59
2022/05/26 06:11:06;;;;;;;1.76;1.47;;;;;;;;;;363220;147;857248;-60
2022/05/26 06:12:08;;;;;;;3.29;1.49;;;;;;;;;;364617;146;859512;-59
2022/05/26 06:13:10;;;;;;;1.98;1.08;;;;;;;;;;365060;147;857296;-59
2022/05/26 06:14:11;;;;;;;1.64;1.29;;;;;;;;;;365404;147;857262;-59
2022/05/26 06:15:13;;;;;;;2.05;1.19;;;;;;;;;;363839;147;857359;-58
2022/05/26 06:16:15;;;;;;;2.74;1.17;;;;;;;;;;360956;147;859102;-59
2022/05/26 06:17:17;;;;;;;2.86;1.36;;;;;;;;;;365297;146;857294;-59
2022/05/26 06:18:19;;;;;;;2.46;1.20;;;;;;;;;;365404;145;858103;-58
2022/05/26 06:19:20;;;;;;;2.29;1.26;;;;;;;;;;365600;145;860403;-58
2022/05/26 06:20:22;;;;;;;2.04;1.16;;;;;;;;;;365362;147;858381;-59
2022/05/26 06:21:24;;;;;;;1.91;1.23;;;;;;;;;;364926;147;864958;-58
2022/05/26 06:22:26;;;;;;;4.39;1.16;;;;;;;;;;365489;147;857194;-58
2022/05/26 06:23:28;;;;;;;1.35;1.25;;;;;;;;;;363704;146;857750;-59
2022/05/26 06:24:29;;;;;;;1.72;0.99;;;;;;;;;;361369;145;857317;-58
2022/05/26 06:25:30;;;;;;;1.16;1.06;;;;;;;;;;361262;147;858899;-58
2022/05/26 06:26:32;;;;;;;1.74;1.36;;;;;;;;;;361426;147;859220;-58
2022/05/26 06:30:15;;;;;;;0.94;0.88;;;;;;;;;;352864;150;864984;-58
2022/05/26 06:31:20;;;;;;;1.01;0.89;;;;;;;;;;364335;147;857367;-58
2022/05/26 06:37:45;;;;;;;0.99;0.92;;;;;;;;;;360773;146;859018;-58
2022/05/26 06:38:47;;;;;;;1.63;1.12;;;;;;;;;;365221;147;857258;-58